createdAt,value
2023-01-10T00:01:44.349Z,1266
2023-01-10T00:07:02.573Z,1296
2023-01-10T00:12:21.022Z,1352
2023-01-10T00:17:39.817Z,1376
2023-01-10T00:22:58.602Z,1401
2023-01-10T00:28:17.352Z,1419
2023-01-10T00:33:35.544Z,1438
2023-01-10T00:38:53.531Z,1451
2023-01-10T00:44:12.270Z,1456
2023-01-10T00:49:30.742Z,1469
2023-01-10T00:54:49.002Z,1467
2023-01-10T01:00:07.200Z,1466
2023-01-10T01:05:26.001Z,1468
2023-01-10T01:10:44.826Z,1450
2023-01-10T01:16:03.633Z,1447
2023-01-10T01:21:22.098Z,1453
2023-01-10T01:26:40.870Z,1442
2023-01-10T01:31:59.347Z,1428
2023-01-10T01:37:17.836Z,1428
2023-01-10T01:42:36.355Z,1431
2023-01-10T01:47:55.111Z,1434
2023-01-10T01:53:13.634Z,1435
2023-01-10T01:58:32.134Z,1433
2023-01-10T02:03:50.648Z,1438
2023-01-10T02:09:09.148Z,1457
2023-01-10T02:14:12.018Z,1457
2023-01-10T02:19:30.790Z,1471
2023-01-10T02:24:49.259Z,1471
2023-01-10T02:30:07.782Z,1479
2023-01-10T02:35:26.239Z,1485
2023-01-10T02:40:44.460Z,1489
2023-01-10T02:46:02.812Z,1481
2023-01-10T02:51:21.845Z,1459
2023-01-10T02:56:40.058Z,1437
2023-01-10T03:01:58.884Z,1421
2023-01-10T03:07:17.470Z,1418
2023-01-10T03:12:35.969Z,1423
2023-01-10T03:17:54.457Z,1448
2023-01-10T03:23:12.969Z,1454
2023-01-10T03:28:31.732Z,1454
2023-01-10T03:33:50.516Z,1461
2023-01-10T03:39:09.002Z,1474
2023-01-10T03:44:27.487Z,1481
2023-01-10T03:49:30.647Z,1487
2023-01-10T03:54:48.875Z,1486
2023-01-10T04:00:07.067Z,1496
2023-01-10T04:05:25.682Z,1506
2023-01-10T04:10:43.566Z,1508
2023-01-10T04:16:02.369Z,1511
2023-01-10T04:21:20.688Z,1504
2023-01-10T04:26:40.216Z,1506
2023-01-10T04:31:58.673Z,1502
2023-01-10T04:37:16.935Z,1471
2023-01-10T04:42:35.482Z,1424
2023-01-10T04:47:53.682Z,1423
2023-01-10T04:53:12.460Z,1402
2023-01-10T04:58:31.198Z,1402
2023-01-10T05:03:49.706Z,1396
2023-01-10T05:09:08.206Z,1386
2023-01-10T05:14:26.553Z,1396
2023-01-10T05:19:44.747Z,1374
2023-01-10T05:25:03.556Z,1360
2023-01-10T05:30:21.742Z,1379
2023-01-10T05:35:40.283Z,1226
2023-01-10T05:40:59.165Z,1262
2023-01-10T05:46:17.982Z,1281
2023-01-10T05:51:36.621Z,1307
2023-01-10T05:56:55.414Z,1331
2023-01-10T06:02:14.076Z,1354
2023-01-10T06:07:33.051Z,1356
2023-01-10T06:12:51.847Z,1346
2023-01-10T06:18:12.233Z,1335
2023-01-10T06:23:30.762Z,1325
2023-01-10T06:28:49.002Z,1308
2023-01-10T06:34:07.769Z,1297
2023-01-10T06:39:25.963Z,1284
2023-01-10T06:44:44.302Z,1268
2023-01-10T06:50:02.782Z,1257
2023-01-10T06:55:21.255Z,1245
2023-01-10T07:00:39.789Z,1236
2023-01-10T07:05:58.371Z,1229
2023-01-10T07:11:17.030Z,1227
2023-01-10T07:16:35.862Z,1218
2023-01-10T07:21:54.628Z,1213
2023-01-10T07:27:13.393Z,1202
2023-01-10T07:32:31.933Z,1197
2023-01-10T07:37:50.405Z,1191
2023-01-10T07:43:08.895Z,1184
2023-01-10T07:48:27.123Z,1178
2023-01-10T07:53:45.887Z,1170
2023-01-10T07:59:04.402Z,1167
2023-01-10T08:04:22.628Z,1152
2023-01-10T08:09:41.387Z,1140
2023-01-10T08:15:00.159Z,1133
2023-01-10T08:20:18.966Z,1123
2023-01-10T08:25:39.453Z,1114
2023-01-10T08:30:57.823Z,1112
2023-01-10T08:36:16.663Z,1113
2023-01-10T08:41:35.129Z,1111
2023-01-10T08:46:53.398Z,1113
2023-01-10T08:52:11.908Z,1105
2023-01-10T08:57:30.111Z,1104
2023-01-10T09:02:48.627Z,1098
2023-01-10T09:08:06.891Z,1097
2023-01-10T09:13:25.388Z,1093
2023-01-10T09:18:43.597Z,1091
2023-01-10T09:24:02.116Z,1080
2023-01-10T09:29:20.300Z,1083
2023-01-10T09:34:38.796Z,1078
2023-01-10T09:39:57.606Z,1081
2023-01-10T09:45:16.086Z,1083
2023-01-10T09:50:18.795Z,1076
2023-01-10T09:55:37.699Z,1071
2023-01-10T10:00:40.610Z,1080
2023-01-10T10:06:11.081Z,1082
2023-01-10T10:11:30.786Z,1077
2023-01-10T10:16:49.276Z,1091
2023-01-10T10:22:07.461Z,1090
2023-01-10T10:27:25.719Z,1090
2023-01-10T10:32:43.936Z,1087
2023-01-10T10:38:02.404Z,1088
2023-01-10T10:43:20.391Z,1076
2023-01-10T10:48:39.140Z,1073
2023-01-10T10:53:57.355Z,1075
2023-01-10T10:59:15.620Z,1066
2023-01-10T11:04:34.101Z,1066
2023-01-10T11:09:52.426Z,1067
2023-01-10T11:15:11.226Z,1063
2023-01-10T11:20:30.072Z,1064
2023-01-10T11:25:48.295Z,1062
2023-01-10T11:31:06.239Z,1059
2023-01-10T11:36:24.991Z,1055
2023-01-10T11:41:43.485Z,1042
2023-01-10T11:47:02.014Z,1040
2023-01-10T11:52:20.502Z,1028
2023-01-10T11:57:38.997Z,1023
2023-01-10T12:02:57.490Z,1012
2023-01-10T12:08:15.409Z,1014
2023-01-10T12:13:33.919Z,1002
2023-01-10T12:18:52.721Z,998
2023-01-10T12:23:55.293Z,993
2023-01-10T12:29:13.484Z,993
2023-01-10T12:34:31.806Z,989
2023-01-10T12:39:50.035Z,980
2023-01-10T12:45:08.520Z,977
2023-01-10T12:50:27.040Z,973
2023-01-10T12:55:45.821Z,968
2023-01-10T13:01:04.667Z,961
2023-01-10T13:06:23.717Z,962
2023-01-10T13:11:42.516Z,950
2023-01-10T13:17:01.283Z,946
2023-01-10T13:22:19.793Z,938
2023-01-10T13:27:38.557Z,936
2023-01-10T13:32:57.126Z,934
2023-01-10T13:38:15.961Z,929
2023-01-10T13:43:34.162Z,923
2023-01-10T13:48:52.419Z,920
2023-01-10T13:54:10.628Z,922
2023-01-10T13:59:28.550Z,913
2023-01-10T14:04:47.108Z,1007
2023-01-10T14:10:05.327Z,839
2023-01-10T14:15:24.230Z,735
2023-01-10T14:20:42.984Z,718
2023-01-10T14:26:01.190Z,729
2023-01-10T14:31:20.216Z,761
2023-01-10T14:36:38.394Z,762
2023-01-10T14:41:56.905Z,764
2023-01-10T14:47:15.367Z,776
2023-01-10T14:52:33.868Z,782
2023-01-10T14:57:51.808Z,784
2023-01-10T15:03:10.299Z,791
2023-01-10T15:08:28.773Z,796
2023-01-10T15:13:47.605Z,807
2023-01-10T15:19:06.073Z,817
2023-01-10T15:24:24.022Z,817
2023-01-10T15:29:43.804Z,827
2023-01-10T15:35:02.149Z,828
2023-01-10T15:40:20.657Z,837
2023-01-10T15:45:39.158Z,839
2023-01-10T15:50:57.878Z,843
2023-01-10T15:56:16.356Z,846
2023-01-10T16:01:34.443Z,856
2023-01-10T16:06:53.311Z,868
2023-01-10T16:12:11.499Z,887
2023-01-10T16:17:30.299Z,915
2023-01-10T16:22:48.497Z,944
2023-01-10T16:28:06.413Z,948
2023-01-10T16:33:24.390Z,954
2023-01-10T16:38:42.484Z,950
2023-01-10T16:43:45.071Z,944
2023-01-10T16:49:03.295Z,943
2023-01-10T16:54:21.224Z,935
2023-01-10T16:59:39.433Z,935
2023-01-10T17:04:57.653Z,957
2023-01-10T17:10:16.376Z,985
2023-01-10T17:15:35.137Z,1018
2023-01-10T17:20:53.122Z,1035
2023-01-10T17:26:11.302Z,1062
2023-01-10T17:31:30.280Z,1079
2023-01-10T17:36:48.666Z,1065
2023-01-10T17:42:06.876Z,1056
2023-01-10T17:47:25.628Z,1045
2023-01-10T17:52:44.407Z,1043
2023-01-10T17:58:02.314Z,1037
2023-01-10T18:03:20.818Z,1033
2023-01-10T18:08:40.492Z,1034
2023-01-10T18:13:58.960Z,1039
2023-01-10T18:19:17.175Z,1052
2023-01-10T18:24:35.689Z,1067
2023-01-10T18:29:39.368Z,1099
2023-01-10T18:34:58.118Z,1081
2023-01-10T18:40:16.896Z,1094
2023-01-10T18:45:35.382Z,1100
2023-01-10T18:50:59.678Z,1089
2023-01-10T18:56:18.455Z,1074
2023-01-10T19:01:36.963Z,1066
2023-01-10T19:06:39.925Z,1063
2023-01-10T19:11:58.723Z,1060
2023-01-10T19:17:16.615Z,1062
2023-01-10T19:22:35.099Z,1074
2023-01-10T19:27:53.327Z,1087
2023-01-10T19:33:11.525Z,1102
2023-01-10T19:38:30.424Z,1111
2023-01-10T19:43:49.268Z,1126
2023-01-10T19:49:07.185Z,1151
2023-01-10T19:54:25.393Z,1179
2023-01-10T19:59:43.665Z,1183
2023-01-10T20:05:02.447Z,1198
2023-01-10T20:10:20.621Z,1234
2023-01-10T20:15:39.420Z,1249
2023-01-10T20:20:57.671Z,1246
2023-01-10T20:26:16.407Z,1244
2023-01-10T20:31:34.920Z,1248
2023-01-10T20:36:52.952Z,1245
2023-01-10T20:42:11.732Z,1252
2023-01-10T20:47:30.240Z,1260
2023-01-10T20:52:48.420Z,1259
2023-01-10T20:58:06.904Z,1262
2023-01-10T21:03:25.143Z,1272
2023-01-10T21:08:43.592Z,1335
2023-01-10T21:13:46.739Z,1361
2023-01-10T21:19:04.977Z,1390
2023-01-10T21:24:23.732Z,1449
2023-01-10T21:29:42.213Z,1503
2023-01-10T21:35:00.464Z,1530
2023-01-10T21:40:18.681Z,1531
2023-01-10T21:45:37.141Z,1531
2023-01-10T21:50:55.734Z,1555
2023-01-10T21:56:14.042Z,1596
2023-01-10T22:01:32.226Z,1605
2023-01-10T22:06:50.810Z,1613
2023-01-10T22:12:12.223Z,1612
2023-01-10T22:17:30.219Z,1604
2023-01-10T22:22:48.728Z,1602
2023-01-10T22:28:07.211Z,1608
2023-01-10T22:33:25.423Z,1602
2023-01-10T22:38:44.241Z,1584
2023-01-10T22:44:02.989Z,1557
2023-01-10T22:49:21.467Z,1539
2023-01-10T22:54:40.250Z,1545
2023-01-10T22:59:58.726Z,1537
2023-01-10T23:05:17.218Z,1543
2023-01-10T23:10:35.456Z,1535
2023-01-10T23:15:53.920Z,1530
2023-01-10T23:21:12.679Z,1535
2023-01-10T23:26:31.207Z,1547
2023-01-10T23:31:49.420Z,1550
2023-01-10T23:37:07.784Z,1553
2023-01-10T23:42:26.009Z,1557
2023-01-10T23:47:44.777Z,1558
2023-01-10T23:53:03.536Z,1563
2023-01-10T23:58:22.062Z,1565
